Time;durP1;ratioP1;P1;durP2;ratioP2;P2;SDS_P1;SDS_P2;PMS_P1;PMS_P2;Temp;Humidity;BMP_temperature;BMP_pressure;BME280_temperature;BME280_humidity;BME280_pressure;Samples;Min_cycle;Max_cycle;Signal;HPM_P1;HPM_P2
2023/10/04 00:02:13;;;;;;;15.18;7.20;;;;;;;22.38;63.12;101374.30;2332490;76;51407;-75
2023/10/04 00:05:16;;;;;;;16.40;6.55;;;;;;;22.37;63.05;101378.01;2303903;75;50286;-73
2023/10/04 00:08:18;;;;;;;24.72;7.58;;;;;;;22.38;63.04;101379.70;2297545;77;50430;-73
2023/10/04 00:11:21;;;;;;;15.55;6.70;;;;;;;22.38;63.08;101385.09;2278355;76;50433;-73
2023/10/04 00:14:23;;;;;;;16.90;7.12;;;;;;;22.38;63.01;101391.83;2253019;77;51169;-72
2023/10/04 00:17:25;;;;;;;13.70;6.30;;;;;;;22.39;63.00;101389.45;2274645;78;50662;-72
2023/10/04 00:20:34;;;;;;;17.65;7.20;;;;;;;22.38;63.04;101401.27;2255091;78;51447;-73
2023/10/04 00:23:39;;;;;;;25.55;7.60;;;;;;;22.38;62.95;101398.58;2254023;78;51226;-73
2023/10/04 00:26:42;;;;;;;15.83;7.10;;;;;;;22.39;62.98;101406.14;2274945;77;51443;-73
2023/10/04 00:29:44;;;;;;;18.10;7.05;;;;;;;22.37;63.05;101406.32;2280511;77;50645;-73
2023/10/04 00:32:47;;;;;;;12.73;6.78;;;;;;;22.36;63.02;101414.09;2255639;78;51378;-74
2023/10/04 00:35:51;;;;;;;15.85;6.53;;;;;;;22.36;63.00;101414.62;2253803;78;50758;-73
2023/10/04 00:38:53;;;;;;;16.40;5.97;;;;;;;22.37;63.01;101426.55;2272024;75;52395;-74
2023/10/04 00:41:55;;;;;;;15.20;6.87;;;;;;;22.38;62.96;101428.75;2286059;75;50286;-74
2023/10/04 00:45:00;;;;;;;16.93;7.00;;;;;;;22.37;62.98;101425.72;2341439;75;50420;-73
2023/10/04 00:48:05;;;;;;;14.85;5.85;;;;;;;22.36;63.06;101437.02;2332319;76;22664;-73
2023/10/04 00:51:08;;;;;;;18.50;6.33;;;;;;;22.37;62.97;101438.68;2305039;76;50270;-74
2023/10/04 00:54:11;;;;;;;15.10;6.92;;;;;;;22.35;63.00;101436.70;2335079;76;51599;-74
2023/10/04 00:57:13;;;;;;;16.32;6.30;;;;;;;22.34;62.97;101448.50;2335256;76;49911;-74
2023/10/04 01:00:17;;;;;;;13.68;6.90;;;;;;;22.34;63.00;101444.45;2335349;76;51486;-74
2023/10/04 01:03:26;;;;;;;15.53;6.08;;;;;;;22.34;62.99;101446.33;2305563;76;52643;-73
2023/10/04 01:06:23;;;;;;;12.28;5.78;;;;;;;22.33;62.98;101440.09;2330987;75;22146;-73
2023/10/04 01:09:26;;;;;;;14.40;5.87;;;;;;;22.33;62.96;101431.18;2335325;76;51490;-73
2023/10/04 01:12:28;;;;;;;13.65;6.00;;;;;;;22.32;62.97;101431.67;2315666;75;49582;-74
2023/10/04 01:15:32;;;;;;;14.38;5.70;;;;;;;22.32;63.01;101438.93;2311268;76;50324;-74
2023/10/04 01:18:34;;;;;;;14.28;6.15;;;;;;;22.31;62.99;101430.01;2307312;77;51464;-73
2023/10/04 01:21:36;;;;;;;15.30;6.15;;;;;;;22.31;63.00;101443.48;2307222;75;51509;-72
2023/10/04 01:24:41;;;;;;;15.63;6.10;;;;;;;22.31;62.99;101442.66;2307096;75;51375;-72
2023/10/04 01:27:44;;;;;;;13.13;5.75;;;;;;;22.31;62.96;101436.75;2312984;75;22778;-72
2023/10/04 01:30:48;;;;;;;12.45;5.97;;;;;;;22.31;62.93;101434.57;2307494;75;50638;-72
2023/10/04 01:33:52;;;;;;;14.03;5.85;;;;;;;22.31;62.90;101432.70;2312851;75;50399;-72
2023/10/04 01:36:54;;;;;;;12.95;5.53;;;;;;;22.30;62.89;101435.09;2281346;77;51022;-73
2023/10/04 01:39:56;;;;;;;17.27;5.53;;;;;;;22.33;62.81;101433.36;2297451;76;49918;-73
2023/10/04 01:43:06;;;;;;;11.18;5.20;;;;;;;22.31;62.85;101432.70;2325509;75;50104;-72
2023/10/04 01:46:03;;;;;;;14.23;5.78;;;;;;;22.30;62.85;101425.66;2320133;76;22408;-72
2023/10/04 01:49:10;;;;;;;10.32;5.15;;;;;;;22.30;62.94;101424.30;2322481;76;50641;-72
2023/10/04 01:52:09;;;;;;;12.75;5.45;;;;;;;22.31;62.90;101430.53;2347227;75;22482;-73
2023/10/04 01:55:12;;;;;;;15.68;6.22;;;;;;;22.31;62.83;101426.48;2348984;75;51445;-72
2023/10/04 01:58:18;;;;;;;13.25;5.55;;;;;;;22.30;62.83;101424.30;2349141;75;50719;-73
2023/10/04 02:01:19;;;;;;;12.20;4.95;;;;;;;22.29;62.83;101429.36;2349371;75;22831;-72
2023/10/04 02:04:21;;;;;;;12.23;5.12;;;;;;;22.30;62.79;101414.87;2321841;76;50195;-73
2023/10/04 02:07:23;;;;;;;11.78;5.40;;;;;;;22.29;62.80;101421.27;2348934;75;50212;-72
2023/10/04 02:10:26;;;;;;;11.63;5.10;;;;;;;22.29;62.79;101422.61;2322013;76;50239;-72
2023/10/04 02:13:28;;;;;;;12.05;4.83;;;;;;;22.29;62.80;101421.78;2334548;75;51549;-73
2023/10/04 02:16:30;;;;;;;14.87;5.40;;;;;;;22.27;62.73;101420.64;2296098;76;51568;-73
2023/10/04 02:19:33;;;;;;;11.45;5.20;;;;;;;22.28;62.76;101426.87;2348992;75;51559;-73
2023/10/04 02:22:36;;;;;;;14.90;4.92;;;;;;;22.27;62.79;101420.64;2341767;76;50556;-73
2023/10/04 02:25:39;;;;;;;10.18;4.78;;;;;;;22.30;62.70;101420.75;2341757;76;50394;-73
2023/10/04 02:28:42;;;;;;;20.65;5.97;;;;;;;22.27;62.75;101429.22;2322179;76;51462;-73
2023/10/04 02:31:44;;;;;;;10.30;5.00;;;;;;;22.28;62.70;101426.87;2342194;76;50220;-73
2023/10/04 02:34:46;;;;;;;11.38;4.90;;;;;;;22.27;62.69;101428.73;2348964;75;50567;-72
2023/10/04 02:37:54;;;;;;;12.45;5.22;;;;;;;22.27;62.73;101434.13;2349067;75;51379;-73
2023/10/04 02:40:53;;;;;;;13.98;4.33;;;;;;;22.27;62.68;101428.73;2340525;75;22301;-73
2023/10/04 02:43:55;;;;;;;11.00;5.03;;;;;;;22.27;62.63;101422.48;2336917;75;50254;-72
2023/10/04 02:47:01;;;;;;;11.95;4.45;;;;;;;22.27;62.62;101424.69;2322524;76;50597;-73
2023/10/04 02:50:02;;;;;;;11.65;4.62;;;;;;;22.29;62.54;101418.57;2342368;75;22959;-72
2023/10/04 02:53:06;;;;;;;11.80;4.60;;;;;;;22.28;62.55;101416.91;2322144;76;51572;-74
2023/10/04 02:56:09;;;;;;;11.03;4.40;;;;;;;22.29;62.44;101424.48;2349242;75;24502;-72
2023/10/04 02:59:11;;;;;;;11.63;4.40;;;;;;;22.29;62.43;101422.61;2322543;76;51222;-72
2023/10/04 03:02:14;;;;;;;10.68;4.80;;;;;;;22.29;62.36;101417.74;2322200;76;50540;-72
2023/10/04 03:05:18;;;;;;;10.58;4.25;;;;;;;22.29;62.42;101421.27;2322179;76;51112;-72
2023/10/04 03:08:20;;;;;;;9.18;4.25;;;;;;;22.28;62.45;101425.00;2349254;75;22347;-73
2023/10/04 03:11:23;;;;;;;10.68;4.47;;;;;;;22.30;62.32;101426.14;2342017;76;50305;-73
2023/10/04 03:14:25;;;;;;;11.05;4.58;;;;;;;22.27;62.37;101430.08;2284911;76;52349;-74
2023/10/04 03:17:27;;;;;;;12.60;4.42;;;;;;;22.28;62.30;101428.22;2349113;75;50264;-73
2023/10/04 03:20:30;;;;;;;9.63;4.37;;;;;;;22.29;62.15;101432.05;2349101;75;50257;-73
2023/10/04 03:23:35;;;;;;;8.70;4.53;;;;;;;22.29;62.23;101431.22;2348898;75;50294;-73
2023/10/04 03:26:36;;;;;;;12.88;4.40;;;;;;;22.29;62.19;101436.09;2341701;75;22155;-73
2023/10/04 03:29:39;;;;;;;9.85;4.30;;;;;;;22.29;62.16;101430.70;2322111;76;52572;-74
2023/10/04 03:32:55;;;;;;;9.08;4.12;;;;;;;22.28;62.16;101435.78;2322210;76;50319;-73
2023/10/04 03:35:53;;;;;;;9.95;4.00;;;;;;;22.30;62.12;101441.83;2340599;75;22309;-74
2023/10/04 03:38:57;;;;;;;10.65;4.53;;;;;;;22.29;62.08;101440.66;2290242;75;51246;-73
2023/10/04 03:41:59;;;;;;;11.65;4.47;;;;;;;22.27;62.09;101447.61;2306309;76;51524;-74
2023/10/04 03:45:01;;;;;;;9.20;4.47;;;;;;;22.27;62.09;101453.00;2285202;76;51465;-73
2023/10/04 03:48:05;;;;;;;9.98;3.98;;;;;;;22.30;62.05;101446.36;2273674;76;50656;-73
2023/10/04 03:51:07;;;;;;;8.40;3.90;;;;;;;22.28;61.98;101457.35;2273645;76;50697;-73
2023/10/04 03:54:09;;;;;;;8.55;3.92;;;;;;;22.28;62.02;101460.56;2248140;78;52462;-74
2023/10/04 03:57:12;;;;;;;9.23;4.45;;;;;;;22.29;61.99;101455.48;2273864;76;50699;-72
2023/10/04 04:00:17;;;;;;;9.95;4.20;;;;;;;22.27;61.91;101458.39;2273567;76;51568;-75
2023/10/04 04:03:19;;;;;;;13.32;4.22;;;;;;;22.27;61.85;101457.53;2273656;77;23515;-73
2023/10/04 04:06:22;;;;;;;8.83;3.80;;;;;;;22.27;61.91;101462.92;2273592;76;51595;-74
2023/10/04 04:09:25;;;;;;;9.68;4.75;;;;;;;22.26;61.90;101463.44;2273709;76;50641;-74
2023/10/04 04:12:27;;;;;;;9.25;4.08;;;;;;;22.25;61.92;101461.78;2299877;75;50766;-75
2023/10/04 04:15:33;;;;;;;8.60;3.92;;;;;;;22.27;61.79;101467.83;2299875;76;51447;-73
2023/10/04 04:18:33;;;;;;;7.08;3.87;;;;;;;22.25;61.86;101467.69;2275809;77;22287;-73
2023/10/04 04:21:35;;;;;;;11.68;3.87;;;;;;;22.26;61.77;101459.91;2276171;77;51250;-74
2023/10/04 04:24:38;;;;;;;11.95;4.62;;;;;;;22.24;61.97;101469.52;2297488;77;50760;-75
2023/10/04 04:27:43;;;;;;;8.58;3.65;;;;;;;22.24;62.07;101465.48;2250625;77;51140;-74
2023/10/04 04:30:46;;;;;;;10.95;4.25;;;;;;;22.24;62.04;101477.61;2276428;77;22412;-74
2023/10/04 04:33:48;;;;;;;14.60;4.25;;;;;;;22.23;62.05;101473.25;2276528;77;22657;-74
2023/10/04 04:36:50;;;;;;;12.80;3.90;;;;;;;22.26;62.13;101481.48;2275790;77;50351;-75
2023/10/04 04:39:53;;;;;;;13.20;4.00;;;;;;;22.25;61.98;101477.95;2312132;76;51465;-75
2023/10/04 04:43:01;;;;;;;22.60;4.83;;;;;;;22.26;62.03;101478.27;2283926;76;51103;-74
2023/10/04 04:45:59;;;;;;;22.37;4.85;;;;;;;22.27;62.12;101471.01;2324420;76;22349;-74
2023/10/04 04:49:01;;;;;;;14.00;4.17;;;;;;;22.27;62.20;101476.41;2293442;76;51294;-74
2023/10/04 04:52:06;;;;;;;18.35;4.85;;;;;;;22.28;62.36;101464.61;2268302;76;52254;-75
2023/10/04 04:55:10;;;;;;;19.77;5.92;;;;;;;22.28;62.67;101464.09;2289791;76;23378;-75
2023/10/04 04:58:14;;;;;;;21.27;4.90;;;;;;;22.28;63.08;101468.66;2309302;75;22403;-75
2023/10/04 05:01:17;;;;;;;13.62;4.90;;;;;;;22.28;62.91;101458.70;2317936;76;51397;-74
2023/10/04 05:04:22;;;;;;;16.25;4.37;;;;;;;22.27;62.94;101459.73;2289881;75;50574;-75
2023/10/04 05:07:27;;;;;;;17.25;4.87;;;;;;;22.25;62.13;101473.08;2310986;76;22399;-74
2023/10/04 05:10:34;;;;;;;18.00;4.67;;;;;;;22.24;62.21;101465.48;2294646;76;22204;-76
2023/10/04 05:13:31;;;;;;;12.40;4.45;;;;;;;22.24;62.08;101467.34;2324200;76;22730;-75
2023/10/04 05:16:33;;;;;;;18.87;4.12;;;;;;;22.25;61.92;101474.43;2293832;76;50615;-76
2023/10/04 05:19:35;;;;;;;17.20;4.78;;;;;;;22.23;61.96;101476.47;2293898;76;51486;-75
2023/10/04 05:22:37;;;;;;;18.80;4.45;;;;;;;22.24;61.98;101483.52;2293409;76;53669;-75
2023/10/04 05:25:39;;;;;;;19.32;4.50;;;;;;;22.23;62.10;101475.13;2293463;76;50658;-75
2023/10/04 05:28:42;;;;;;;20.52;4.60;;;;;;;22.22;62.08;101481.52;2293465;76;51088;-75
2023/10/04 05:31:44;;;;;;;19.37;4.50;;;;;;;22.21;62.10;101486.08;2268897;76;51604;-76
2023/10/04 05:34:48;;;;;;;14.73;3.85;;;;;;;22.21;62.06;101483.38;2325386;76;50572;-76
2023/10/04 05:37:50;;;;;;;15.80;4.47;;;;;;;22.24;62.01;101480.31;2320934;76;22429;-76
2023/10/04 05:40:52;;;;;;;22.10;4.28;;;;;;;22.21;62.03;101486.08;2266592;76;50885;-75
2023/10/04 05:43:54;;;;;;;13.58;4.50;;;;;;;22.18;62.09;101492.65;2292410;76;50185;-76
2023/10/04 05:46:57;;;;;;;29.00;4.20;;;;;;;22.20;62.05;101493.86;2282357;76;50243;-77
2023/10/04 05:49:59;;;;;;;21.37;4.70;;;;;;;22.19;61.94;101500.25;2328508;76;50211;-77
2023/10/04 05:53:05;;;;;;;17.75;4.65;;;;;;;22.21;62.17;101501.42;2337955;76;51504;-77
2023/10/04 05:56:05;;;;;;;24.63;4.60;;;;;;;22.22;62.07;101503.95;2337954;76;22286;-77
2023/10/04 05:59:10;;;;;;;24.30;5.22;;;;;;;22.23;62.06;101516.39;2306203;76;51501;-77
2023/10/04 06:02:11;;;;;;;34.78;5.12;;;;;;;22.23;62.04;101524.48;2306603;76;22409;-77
2023/10/04 06:05:16;;;;;;;21.42;5.50;;;;;;;22.21;61.95;101520.30;2284078;76;52614;-76
2023/10/04 06:08:21;;;;;;;40.38;6.22;;;;;;;22.20;62.02;101523.50;2268138;77;22781;-77
2023/10/04 06:11:24;;;;;;;33.18;5.30;;;;;;;22.21;62.04;101531.08;2290306;76;51386;-77
2023/10/04 06:14:26;;;;;;;27.98;5.45;;;;;;;22.21;61.90;101531.08;2278497;77;50233;-77
2023/10/04 06:17:29;;;;;;;28.07;5.00;;;;;;;22.22;61.85;101541.69;2295141;77;50110;-77
2023/10/04 06:20:33;;;;;;;29.77;5.58;;;;;;;22.21;61.85;101546.73;2269765;77;51057;-77
2023/10/04 06:23:36;;;;;;;35.15;5.03;;;;;;;22.23;61.80;101549.26;2270035;77;51487;-77
2023/10/04 06:26:38;;;;;;;32.25;5.40;;;;;;;22.24;61.75;101551.75;2290914;77;50708;-77
2023/10/04 06:29:41;;;;;;;28.83;5.62;;;;;;;22.24;61.65;101551.75;2290992;77;51454;-77
2023/10/04 06:32:43;;;;;;;30.23;5.50;;;;;;;22.25;61.59;101562.05;2290728;77;50244;-77
2023/10/04 06:35:46;;;;;;;20.08;4.47;;;;;;;22.24;61.60;101556.31;2269586;77;51399;-75
2023/10/04 06:38:49;;;;;;;23.65;4.83;;;;;;;22.23;61.68;101564.91;2269795;77;51474;-76
2023/10/04 06:41:52;;;;;;;16.70;4.58;;;;;;;22.24;61.57;101581.41;2310706;76;50238;-76
2023/10/04 06:44:55;;;;;;;25.27;5.33;;;;;;;22.24;61.54;101572.48;2267163;76;52397;-77
2023/10/04 06:47:58;;;;;;;24.50;5.00;;;;;;;22.24;61.52;101577.36;2291448;76;50609;-76
2023/10/04 06:51:01;;;;;;;22.42;5.17;;;;;;;22.24;61.41;101573.31;2298609;76;51530;-76
2023/10/04 06:54:05;;;;;;;16.77;4.53;;;;;;;22.27;61.35;101579.72;2267584;77;52192;-77
2023/10/04 06:57:08;;;;;;;24.47;4.62;;;;;;;22.27;61.31;101581.06;2292369;76;24022;-76
2023/10/04 07:00:14;;;;;;;23.40;4.87;;;;;;;22.33;61.22;101588.91;2291580;77;51405;-76
2023/10/04 07:03:17;;;;;;;16.67;4.70;;;;;;;22.35;61.13;101595.80;2260324;77;51463;-76
2023/10/04 07:06:19;;;;;;;20.40;4.15;;;;;;;22.34;61.11;101594.10;2293276;77;50662;-76
2023/10/04 07:09:21;;;;;;;23.38;4.47;;;;;;;22.35;61.12;101611.11;2291516;77;50399;-76
2023/10/04 07:12:23;;;;;;;16.77;4.40;;;;;;;22.28;61.24;101601.59;2248682;77;52000;-77
2023/10/04 07:15:31;;;;;;;21.10;4.70;;;;;;;22.30;61.23;101596.00;2260287;77;50565;-76
2023/10/04 07:18:31;;;;;;;26.37;5.17;;;;;;;22.27;61.26;101604.46;2290408;77;22396;-76
2023/10/04 07:21:34;;;;;;;22.70;4.85;;;;;;;22.24;61.37;101605.67;2260668;77;51590;-77
2023/10/04 07:24:37;;;;;;;18.27;4.17;;;;;;;22.26;61.34;101617.63;2260254;77;50312;-77
2023/10/04 07:27:43;;;;;;;19.05;4.15;;;;;;;22.28;61.34;101615.08;2234764;77;52396;-76
2023/10/04 07:30:46;;;;;;;17.55;4.17;;;;;;;22.27;61.31;101614.77;2260921;77;51521;-75
2023/10/04 07:33:48;;;;;;;19.62;4.75;;;;;;;22.28;61.33;101622.34;2261701;77;51479;-76
2023/10/04 07:36:51;;;;;;;16.23;4.85;;;;;;;22.26;61.45;101626.55;2238883;76;49525;-76
2023/10/04 07:39:53;;;;;;;12.28;3.85;;;;;;;22.28;61.50;101619.13;2337312;76;50585;-76
2023/10/04 07:42:55;;;;;;;15.70;3.58;;;;;;;22.27;61.29;101630.94;2325076;76;50320;-75
2023/10/04 07:45:58;;;;;;;15.95;4.15;;;;;;;22.28;61.38;101632.60;2337820;75;50669;-75
2023/10/04 07:49:01;;;;;;;19.27;4.12;;;;;;;22.29;61.07;101630.22;2306215;76;50265;-76
2023/10/04 07:52:04;;;;;;;13.05;3.75;;;;;;;22.29;61.31;101631.56;2273237;76;52676;-76
2023/10/04 07:55:18;;;;;;;10.75;3.87;;;;;;;22.29;61.26;101622.65;2311955;76;50702;-76
2023/10/04 07:58:12;;;;;;;16.93;3.80;;;;;;;22.29;61.19;101631.56;2331197;76;22775;-77
2023/10/04 08:01:18;;;;;;;17.77;3.77;;;;;;;22.28;61.24;101629.08;2273339;76;50612;-76
2023/10/04 08:04:20;;;;;;;14.47;3.83;;;;;;;22.28;61.01;101625.86;2287456;76;49829;-76
2023/10/04 08:07:22;;;;;;;15.10;3.55;;;;;;;22.30;61.11;101629.22;2255953;77;50718;-76
2023/10/04 08:10:26;;;;;;;11.93;3.65;;;;;;;22.30;61.12;101629.22;2312936;76;51475;-77
2023/10/04 08:13:28;;;;;;;12.45;3.42;;;;;;;22.31;61.13;101638.97;2313948;76;51513;-76
2023/10/04 08:16:31;;;;;;;13.60;3.85;;;;;;;22.30;61.14;101630.56;2251641;77;50617;-78
2023/10/04 08:19:33;;;;;;;15.72;3.58;;;;;;;22.31;61.00;101645.70;2317141;75;50617;-77
2023/10/04 08:22:36;;;;;;;12.20;3.77;;;;;;;22.29;61.01;101644.22;2333231;76;51501;-75
2023/10/04 08:25:39;;;;;;;11.18;3.92;;;;;;;22.31;61.04;101661.89;2272176;76;50841;-75
2023/10/04 08:28:42;;;;;;;12.37;3.35;;;;;;;22.28;60.96;101650.64;2305976;76;51575;-76
2023/10/04 08:31:44;;;;;;;13.62;4.00;;;;;;;22.29;60.88;101657.70;2286136;76;50227;-77
2023/10/04 08:34:46;;;;;;;13.68;4.20;;;;;;;22.27;61.01;101662.42;2278689;76;50088;-77
2023/10/04 08:37:53;;;;;;;11.65;3.45;;;;;;;22.28;60.87;101668.17;2278339;77;51770;-75
2023/10/04 08:40:55;;;;;;;14.00;3.47;;;;;;;22.28;60.97;101666.82;2293807;75;24823;-76
2023/10/04 08:43:57;;;;;;;10.45;3.08;;;;;;;22.28;60.99;101673.05;2348787;75;51429;-76
2023/10/04 08:47:00;;;;;;;10.55;3.30;;;;;;;22.29;60.90;101670.66;2353258;75;51380;-75
2023/10/04 08:50:03;;;;;;;9.88;3.47;;;;;;;22.30;60.83;101664.75;2353272;75;50311;-75
2023/10/04 08:53:15;;;;;;;13.80;3.37;;;;;;;22.29;60.79;101671.18;2353053;75;50412;-76
2023/10/04 08:56:18;;;;;;;13.83;3.55;;;;;;;22.29;60.86;101672.02;2353291;75;50330;-76
2023/10/04 08:59:20;;;;;;;9.28;3.30;;;;;;;22.28;61.00;101668.17;2332906;75;50415;-75
2023/10/04 09:02:23;;;;;;;11.93;3.58;;;;;;;22.28;60.95;101670.34;2359822;75;51619;-76
2023/10/04 09:05:28;;;;;;;12.85;3.65;;;;;;;22.27;61.09;101671.86;2332965;75;52368;-75
2023/10/04 09:08:29;;;;;;;9.70;3.30;;;;;;;22.25;60.93;101676.63;2353333;75;22299;-75
2023/10/04 09:11:32;;;;;;;7.97;2.77;;;;;;;22.25;61.10;101678.81;2353253;75;50644;-75
2023/10/04 09:14:40;;;;;;;10.45;3.50;;;;;;;22.28;60.90;101678.95;2310386;75;51683;-75
2023/10/04 09:17:55;;;;;;;12.82;3.37;;;;;;;22.26;61.05;101679.64;2351462;75;23001;-75
2023/10/04 09:20:53;;;;;;;7.85;3.30;;;;;;;22.27;60.88;101687.56;2313317;76;22372;-75
2023/10/04 09:24:09;;;;;;;10.68;3.20;;;;;;;22.27;60.87;101686.69;2319294;76;50573;-75
2023/10/04 09:27:11;;;;;;;8.03;2.98;;;;;;;22.25;60.84;101692.80;2312980;77;50731;-76
2023/10/04 09:30:23;;;;;;;14.50;3.40;;;;;;;22.24;60.84;101695.98;2268087;77;52574;-75
2023/10/04 09:33:32;;;;;;;8.43;3.02;;;;;;;22.24;60.71;101704.59;2311471;76;50734;-75
2023/10/04 09:36:35;;;;;;;9.00;3.00;;;;;;;22.21;60.63;101699.05;2319321;75;22435;-76
2023/10/04 09:39:37;;;;;;;11.65;3.00;;;;;;;22.22;60.59;101702.09;2333725;75;52329;-76
2023/10/04 09:42:53;;;;;;;8.60;3.00;;;;;;;22.21;60.70;101708.48;2315289;75;50332;-75
2023/10/04 09:45:59;;;;;;;13.65;3.50;;;;;;;22.22;60.51;101704.79;2313430;75;50299;-76
2023/10/04 09:49:03;;;;;;;8.60;2.95;;;;;;;22.21;60.66;101701.75;2317601;75;51609;-75
2023/10/04 09:52:16;;;;;;;12.35;2.98;;;;;;;22.23;60.52;101690.80;2333931;75;51468;-75
2023/10/04 09:55:24;;;;;;;12.45;3.02;;;;;;;22.24;60.53;101693.29;2313683;75;51523;-76
2023/10/04 09:58:24;;;;;;;12.37;2.77;;;;;;;22.24;60.36;101701.37;2343809;75;22351;-75
2023/10/04 10:01:26;;;;;;;9.78;2.95;;;;;;;22.24;60.55;101698.68;2353359;74;51491;-76
2023/10/04 10:04:31;;;;;;;12.25;2.92;;;;;;;22.23;60.42;101697.53;2351287;75;50765;-76
2023/10/04 10:07:34;;;;;;;8.35;2.80;;;;;;;22.23;60.38;101702.92;2329162;75;51526;-77
2023/10/04 10:10:41;;;;;;;10.32;3.08;;;;;;;22.23;60.46;101717.23;2319187;75;49960;-77
2023/10/04 10:13:43;;;;;;;8.25;2.95;;;;;;;22.24;60.34;101711.33;2339590;75;50005;-77
2023/10/04 10:16:45;;;;;;;6.85;2.87;;;;;;;22.22;60.49;101714.22;2354279;74;50598;-77
2023/10/04 10:19:47;;;;;;;7.03;3.17;;;;;;;22.22;60.47;101718.27;2333925;75;52354;-77
2023/10/04 10:23:02;;;;;;;13.25;3.15;;;;;;;22.24;60.40;101722.11;2334495;75;51467;-77
2023/10/04 10:26:20;;;;;;;8.03;2.83;;;;;;;22.23;60.54;101719.10;2312743;76;51834;-77
2023/10/04 10:29:22;;;;;;;9.78;2.65;;;;;;;22.24;60.55;101716.20;2282351;76;52392;-76
2023/10/04 10:32:25;;;;;;;13.88;3.37;;;;;;;22.26;60.57;101718.73;2295462;75;50012;-77
2023/10/04 10:35:52;;;;;;;8.83;2.65;;;;;;;22.24;60.60;101720.77;2360891;75;51498;-77
2023/10/04 10:38:55;;;;;;;9.10;3.60;;;;;;;22.24;60.65;101730.20;2354006;75;50519;-77
2023/10/04 10:41:57;;;;;;;12.20;3.30;;;;;;;22.22;61.16;101726.36;2354912;75;51410;-77
2023/10/04 10:45:26;;;;;;;10.60;3.45;;;;;;;22.23;61.16;101725.33;2314452;75;51466;-77
2023/10/04 10:48:36;;;;;;;10.30;3.55;;;;;;;22.22;61.08;101731.75;2299331;75;50452;-77
2023/10/04 10:51:44;;;;;;;14.80;3.22;;;;;;;22.23;61.28;101732.58;2280077;78;22415;-77
2023/10/04 10:54:46;;;;;;;12.73;3.42;;;;;;;22.21;61.26;101727.36;2254595;78;50596;-77
2023/10/04 10:57:50;;;;;;;13.83;3.45;;;;;;;22.23;61.24;101727.19;2281273;78;50269;-77
2023/10/04 11:00:52;;;;;;;6.85;3.37;;;;;;;22.23;61.29;101721.80;2281507;78;51504;-77
2023/10/04 11:03:54;;;;;;;15.55;2.90;;;;;;;22.24;61.28;101720.77;2254720;78;51428;-76
2023/10/04 11:06:56;;;;;;;9.13;3.10;;;;;;;22.25;61.24;101713.86;2281412;78;51420;-77
2023/10/04 11:09:59;;;;;;;13.18;3.08;;;;;;;22.24;61.28;101723.46;2230292;78;52313;-77
2023/10/04 11:13:08;;;;;;;12.43;3.22;;;;;;;22.24;61.28;101715.37;2307922;76;51473;-77
2023/10/04 11:16:08;;;;;;;11.18;3.05;;;;;;;22.23;61.32;101720.45;2281375;78;22312;-78
2023/10/04 11:19:12;;;;;;;11.85;3.02;;;;;;;22.24;61.28;101718.91;2230220;78;52513;-77
2023/10/04 11:22:17;;;;;;;10.08;3.12;;;;;;;22.25;61.25;101723.30;2251302;78;22331;-77
2023/10/04 11:25:19;;;;;;;10.35;3.08;;;;;;;22.26;61.24;101720.08;2266899;78;50277;-77
2023/10/04 11:28:21;;;;;;;8.53;2.70;;;;;;;22.25;61.19;101716.55;2271974;78;50333;-77
2023/10/04 11:31:24;;;;;;;9.18;2.72;;;;;;;22.24;61.24;101724.81;2272177;78;50316;-77
2023/10/04 11:34:26;;;;;;;9.13;2.83;;;;;;;22.22;61.26;101727.70;2241643;78;52429;-76
2023/10/04 11:37:29;;;;;;;10.25;3.50;;;;;;;22.22;61.24;101728.19;2266715;78;50884;-77
2023/10/04 11:40:32;;;;;;;13.58;3.17;;;;;;;22.22;61.24;101725.01;2271972;78;50785;-76
2023/10/04 11:43:34;;;;;;;9.33;2.98;;;;;;;22.21;61.17;101726.01;2249070;76;52443;-77
2023/10/04 11:46:55;;;;;;;13.58;3.45;;;;;;;22.22;61.12;101718.27;2275050;77;50590;-77
2023/10/04 11:50:07;;;;;;;10.82;3.35;;;;;;;22.21;61.13;101715.23;2282796;78;51428;-76
2023/10/04 11:53:05;;;;;;;9.15;3.40;;;;;;;22.25;61.04;101726.50;2250868;78;22346;-77
2023/10/04 11:56:09;;;;;;;10.23;3.42;;;;;;;22.22;61.09;101722.31;2275038;77;51639;-77
2023/10/04 11:59:13;;;;;;;7.47;3.27;;;;;;;22.22;61.08;101727.70;2225764;78;52556;-77
2023/10/04 12:02:15;;;;;;;9.25;3.45;;;;;;;22.20;61.06;101727.04;2275173;77;22326;-77
2023/10/04 12:05:18;;;;;;;10.05;3.60;;;;;;;22.19;61.08;101710.52;2282496;78;51408;-77
2023/10/04 12:08:21;;;;;;;11.28;3.70;;;;;;;22.19;61.07;101722.65;2226003;78;52608;-77
2023/10/04 12:11:25;;;;;;;10.23;3.77;;;;;;;22.18;61.07;101715.56;2291949;76;50622;-77
2023/10/04 12:14:27;;;;;;;12.45;3.72;;;;;;;22.20;61.02;101720.82;2326112;75;25445;-77
2023/10/04 12:17:29;;;;;;;10.58;3.35;;;;;;;22.15;61.10;101718.63;2311530;76;51497;-77
2023/10/04 12:20:36;;;;;;;12.15;3.80;;;;;;;22.18;61.02;101716.91;2311500;76;51430;-77
2023/10/04 12:23:36;;;;;;;10.20;3.33;;;;;;;22.19;60.94;101719.95;2333105;76;22254;-77
2023/10/04 12:26:38;;;;;;;13.10;4.25;;;;;;;22.20;60.90;101721.65;2333373;75;51467;-77
2023/10/04 12:29:40;;;;;;;12.93;3.65;;;;;;;22.21;60.89;101726.01;2333440;76;51384;-77
2023/10/04 12:32:43;;;;;;;12.05;3.90;;;;;;;22.18;60.93;101722.30;2285345;76;52409;-77
2023/10/04 12:35:45;;;;;;;12.55;3.98;;;;;;;22.18;60.94;101716.91;2311358;76;51532;-77
2023/10/04 12:38:47;;;;;;;8.43;3.40;;;;;;;22.20;60.93;101716.26;2311408;76;52174;-77
2023/10/04 12:41:50;;;;;;;10.45;4.05;;;;;;;22.22;60.88;101714.22;2306629;76;51501;-77
2023/10/04 12:44:54;;;;;;;10.70;4.37;;;;;;;22.23;60.85;101714.55;2312841;76;51502;-77
2023/10/04 12:47:56;;;;;;;10.75;4.30;;;;;;;22.23;60.85;101719.94;2283064;77;51405;-77
2023/10/04 12:50:58;;;;;;;10.40;4.33;;;;;;;22.24;60.83;101708.63;2302433;77;50396;-76
2023/10/04 12:54:01;;;;;;;9.80;3.77;;;;;;;22.23;60.83;101705.11;2282963;77;50042;-77
2023/10/04 12:57:03;;;;;;;9.15;3.72;;;;;;;22.22;60.84;101704.79;2283041;77;52402;-77
2023/10/04 13:00:13;;;;;;;9.63;4.25;;;;;;;22.23;60.82;101702.41;2283119;77;50357;-77
2023/10/04 13:03:11;;;;;;;12.40;4.03;;;;;;;22.23;60.84;101705.11;2308020;75;22243;-77
2023/10/04 13:06:14;;;;;;;8.68;3.83;;;;;;;22.25;60.77;101700.89;2308763;77;51458;-77
2023/10/04 13:09:19;;;;;;;8.45;3.75;;;;;;;22.25;60.76;101704.94;2302330;77;49938;-77
2023/10/04 13:12:20;;;;;;;10.00;4.30;;;;;;;22.24;60.76;101706.77;2321859;75;23367;-76
2023/10/04 13:15:23;;;;;;;11.55;3.87;;;;;;;22.26;60.73;101709.30;2342699;75;51450;-76
2023/10/04 13:18:25;;;;;;;8.35;3.17;;;;;;;22.26;60.75;101709.30;2348658;75;51348;-76
2023/10/04 13:21:27;;;;;;;7.45;3.35;;;;;;;22.28;60.67;101704.05;2296025;76;51714;-77
2023/10/04 13:24:31;;;;;;;10.82;4.15;;;;;;;22.28;60.66;101705.40;2348457;75;51381;-77
2023/10/04 13:27:33;;;;;;;8.45;3.55;;;;;;;22.29;60.62;101705.72;2348488;75;50409;-77
2023/10/04 13:30:35;;;;;;;16.00;3.92;;;;;;;22.30;60.58;101702.50;2321930;76;53484;-77
2023/10/04 13:33:38;;;;;;;8.85;3.65;;;;;;;22.31;60.52;101696.94;2321787;76;50212;-77
2023/10/04 13:36:40;;;;;;;10.55;3.85;;;;;;;22.31;60.51;101690.20;2321825;76;51432;-77
2023/10/04 13:39:42;;;;;;;7.47;3.72;;;;;;;22.31;60.52;101690.72;2348605;75;50097;-76
2023/10/04 13:42:45;;;;;;;8.03;3.83;;;;;;;22.30;60.55;101688.53;2308696;76;50020;-77
2023/10/04 13:45:49;;;;;;;9.30;3.60;;;;;;;22.30;60.51;101688.53;2285614;76;52474;-77
2023/10/04 13:48:51;;;;;;;8.68;3.50;;;;;;;22.32;60.49;101684.29;2316636;76;22366;-77
2023/10/04 13:51:58;;;;;;;8.20;3.72;;;;;;;22.33;60.45;101685.98;2316335;76;51383;-76
2023/10/04 13:54:57;;;;;;;6.40;3.15;;;;;;;22.33;60.43;101690.03;2284878;76;22315;-76
2023/10/04 13:58:00;;;;;;;10.08;4.03;;;;;;;22.34;60.42;101687.65;2310715;76;51381;-76
2023/10/04 14:01:04;;;;;;;7.65;3.80;;;;;;;22.33;60.44;101688.16;2284456;76;50085;-77
2023/10/04 14:04:06;;;;;;;7.45;3.50;;;;;;;22.34;60.40;101684.44;2285131;76;22832;-76
2023/10/04 14:07:08;;;;;;;10.70;4.22;;;;;;;22.31;60.42;101683.45;2316148;76;50554;-76